sensor_id;sensor_type;location;lat;lon;timestamp;temperature;humidity
17954;DHT22;9102;53.548;9.926;2022-09-16T00:00:29;11.20;99.90
17954;DHT22;9102;53.548;9.926;2022-09-16T00:02:56;11.20;99.90
17954;DHT22;9102;53.548;9.926;2022-09-16T00:05:24;11.20;99.90
17954;DHT22;9102;53.548;9.926;2022-09-16T00:07:51;11.20;99.90
17954;DHT22;9102;53.548;9.926;2022-09-16T00:10:19;11.20;99.90
17954;DHT22;9102;53.548;9.926;2022-09-16T00:12:47;11.10;99.90
17954;DHT22;9102;53.548;9.926;2022-09-16T00:15:14;11.10;99.90
17954;DHT22;9102;53.548;9.926;2022-09-16T00:17:41;11.10;99.90
17954;DHT22;9102;53.548;9.926;2022-09-16T00:20:08;11.00;99.90
17954;DHT22;9102;53.548;9.926;2022-09-16T00:22:35;11.10;99.90
17954;DHT22;9102;53.548;9.926;2022-09-16T00:25:02;11.00;99.90
17954;DHT22;9102;53.548;9.926;2022-09-16T00:27:30;11.00;99.90
17954;DHT22;9102;53.548;9.926;2022-09-16T00:29:57;11.00;99.90
17954;DHT22;9102;53.548;9.926;2022-09-16T00:32:24;11.00;99.90
17954;DHT22;9102;53.548;9.926;2022-09-16T00:34:51;11.00;99.90
17954;DHT22;9102;53.548;9.926;2022-09-16T00:37:19;11.10;99.90
17954;DHT22;9102;53.548;9.926;2022-09-16T00:39:47;11.10;99.90
17954;DHT22;9102;53.548;9.926;2022-09-16T00:42:14;11.20;99.90
17954;DHT22;9102;53.548;9.926;2022-09-16T00:44:55;11.20;99.90
17954;DHT22;9102;53.548;9.926;2022-09-16T00:47:26;11.20;99.90
17954;DHT22;9102;53.548;9.926;2022-09-16T00:49:56;11.20;99.90
17954;DHT22;9102;53.548;9.926;2022-09-16T00:52:26;11.20;99.90
17954;DHT22;9102;53.548;9.926;2022-09-16T00:54:54;11.20;99.90
17954;DHT22;9102;53.548;9.926;2022-09-16T00:57:21;11.00;99.90
17954;DHT22;9102;53.548;9.926;2022-09-16T00:59:53;11.00;99.90
17954;DHT22;9102;53.548;9.926;2022-09-16T01:02:21;11.00;99.90
17954;DHT22;9102;53.548;9.926;2022-09-16T01:04:53;11.00;99.90
17954;DHT22;9102;53.548;9.926;2022-09-16T01:07:26;11.00;99.90
17954;DHT22;9102;53.548;9.926;2022-09-16T01:09:55;11.10;99.90
17954;DHT22;9102;53.548;9.926;2022-09-16T01:12:23;11.10;99.90
17954;DHT22;9102;53.548;9.926;2022-09-16T01:14:53;11.10;99.90
17954;DHT22;9102;53.548;9.926;2022-09-16T01:17:27;11.10;99.90
17954;DHT22;9102;53.548;9.926;2022-09-16T01:20:18;11.10;99.90
17954;DHT22;9102;53.548;9.926;2022-09-16T01:23:06;11.10;99.90
17954;DHT22;9102;53.548;9.926;2022-09-16T01:25:48;11.00;99.90
17954;DHT22;9102;53.548;9.926;2022-09-16T01:28:35;11.00;99.90
17954;DHT22;9102;53.548;9.926;2022-09-16T01:31:14;11.00;99.90
17954;DHT22;9102;53.548;9.926;2022-09-16T01:33:49;10.80;99.90
17954;DHT22;9102;53.548;9.926;2022-09-16T01:36:30;10.90;99.90
17954;DHT22;9102;53.548;9.926;2022-09-16T01:39:12;10.90;99.90
17954;DHT22;9102;53.548;9.926;2022-09-16T01:41:54;10.80;99.90
17954;DHT22;9102;53.548;9.926;2022-09-16T01:44:27;10.90;99.90
17954;DHT22;9102;53.548;9.926;2022-09-16T01:47:03;10.90;99.90
17954;DHT22;9102;53.548;9.926;2022-09-16T01:49:38;10.90;99.90
17954;DHT22;9102;53.548;9.926;2022-09-16T01:55:33;11.00;99.90
17954;DHT22;9102;53.548;9.926;2022-09-16T01:58:05;11.00;99.90
17954;DHT22;9102;53.548;9.926;2022-09-16T02:00:34;11.00;99.90
17954;DHT22;9102;53.548;9.926;2022-09-16T02:03:06;10.90;99.90
17954;DHT22;9102;53.548;9.926;2022-09-16T02:05:35;10.90;99.90
17954;DHT22;9102;53.548;9.926;2022-09-16T02:08:06;10.80;99.90
17954;DHT22;9102;53.548;9.926;2022-09-16T02:10:37;10.80;99.90
17954;DHT22;9102;53.548;9.926;2022-09-16T02:13:09;10.90;99.90
17954;DHT22;9102;53.548;9.926;2022-09-16T02:15:39;10.80;99.90
17954;DHT22;9102;53.548;9.926;2022-09-16T02:18:12;10.80;99.90
17954;DHT22;9102;53.548;9.926;2022-09-16T02:20:42;10.80;99.90
17954;DHT22;9102;53.548;9.926;2022-09-16T02:23:14;10.90;99.90
17954;DHT22;9102;53.548;9.926;2022-09-16T02:25:44;10.90;99.90
17954;DHT22;9102;53.548;9.926;2022-09-16T02:28:16;10.80;99.90
17954;DHT22;9102;53.548;9.926;2022-09-16T02:30:46;10.90;99.90
17954;DHT22;9102;53.548;9.926;2022-09-16T02:33:16;10.90;99.90
17954;DHT22;9102;53.548;9.926;2022-09-16T02:35:47;10.90;99.90
17954;DHT22;9102;53.548;9.926;2022-09-16T02:38:21;10.90;99.90
17954;DHT22;9102;53.548;9.926;2022-09-16T02:40:51;10.90;99.90
17954;DHT22;9102;53.548;9.926;2022-09-16T02:43:19;10.90;99.90
17954;DHT22;9102;53.548;9.926;2022-09-16T02:45:51;11.00;99.90
17954;DHT22;9102;53.548;9.926;2022-09-16T02:48:27;11.00;99.90
17954;DHT22;9102;53.548;9.926;2022-09-16T02:51:03;10.90;99.90
17954;DHT22;9102;53.548;9.926;2022-09-16T02:53:39;10.90;99.90
17954;DHT22;9102;53.548;9.926;2022-09-16T02:56:12;10.90;99.90
17954;DHT22;9102;53.548;9.926;2022-09-16T02:58:40;10.90;99.90
17954;DHT22;9102;53.548;9.926;2022-09-16T03:01:10;10.80;99.90
17954;DHT22;9102;53.548;9.926;2022-09-16T03:03:40;10.80;99.90
17954;DHT22;9102;53.548;9.926;2022-09-16T03:06:15;10.80;99.90
17954;DHT22;9102;53.548;9.926;2022-09-16T03:08:43;10.80;99.90
17954;DHT22;9102;53.548;9.926;2022-09-16T03:11:21;10.70;99.90
17954;DHT22;9102;53.548;9.926;2022-09-16T03:13:55;10.90;99.90
17954;DHT22;9102;53.548;9.926;2022-09-16T03:16:30;10.90;99.90
17954;DHT22;9102;53.548;9.926;2022-09-16T03:19:08;10.80;99.90
17954;DHT22;9102;53.548;9.926;2022-09-16T03:21:44;10.80;99.90
17954;DHT22;9102;53.548;9.926;2022-09-16T03:24:19;10.70;99.90
17954;DHT22;9102;53.548;9.926;2022-09-16T03:26:55;10.70;99.90
17954;DHT22;9102;53.548;9.926;2022-09-16T03:29:28;10.60;99.90
17954;DHT22;9102;53.548;9.926;2022-09-16T03:32:01;10.60;99.90
17954;DHT22;9102;53.548;9.926;2022-09-16T03:34:34;10.60;99.90
17954;DHT22;9102;53.548;9.926;2022-09-16T03:37:06;10.60;99.90
17954;DHT22;9102;53.548;9.926;2022-09-16T03:39:34;10.50;99.90
17954;DHT22;9102;53.548;9.926;2022-09-16T03:42:03;10.70;99.90
17954;DHT22;9102;53.548;9.926;2022-09-16T03:44:32;10.70;99.90
17954;DHT22;9102;53.548;9.926;2022-09-16T03:47:00;10.70;99.90
17954;DHT22;9102;53.548;9.926;2022-09-16T03:49:27;10.70;99.90
17954;DHT22;9102;53.548;9.926;2022-09-16T03:51:56;10.70;99.90
17954;DHT22;9102;53.548;9.926;2022-09-16T03:54:23;10.80;99.90
17954;DHT22;9102;53.548;9.926;2022-09-16T03:56:50;10.80;99.90
17954;DHT22;9102;53.548;9.926;2022-09-16T03:59:17;10.90;99.90
17954;DHT22;9102;53.548;9.926;2022-09-16T04:01:44;10.90;99.90
17954;DHT22;9102;53.548;9.926;2022-09-16T04:07:34;10.90;99.90
17954;DHT22;9102;53.548;9.926;2022-09-16T04:10:02;10.80;99.90
17954;DHT22;9102;53.548;9.926;2022-09-16T04:12:29;10.80;99.90
17954;DHT22;9102;53.548;9.926;2022-09-16T04:14:56;10.80;99.90
17954;DHT22;9102;53.548;9.926;2022-09-16T04:17:23;10.80;99.90
17954;DHT22;9102;53.548;9.926;2022-09-16T04:19:50;10.70;99.90
17954;DHT22;9102;53.548;9.926;2022-09-16T04:22:17;10.70;99.90
17954;DHT22;9102;53.548;9.926;2022-09-16T04:24:45;10.70;99.90
17954;DHT22;9102;53.548;9.926;2022-09-16T04:27:12;10.70;99.90
17954;DHT22;9102;53.548;9.926;2022-09-16T04:29:39;10.70;99.90
17954;DHT22;9102;53.548;9.926;2022-09-16T04:32:05;10.70;99.90
17954;DHT22;9102;53.548;9.926;2022-09-16T04:34:32;10.60;99.90
17954;DHT22;9102;53.548;9.926;2022-09-16T04:36:59;10.60;99.90
17954;DHT22;9102;53.548;9.926;2022-09-16T04:39:26;10.50;99.90
17954;DHT22;9102;53.548;9.926;2022-09-16T04:41:54;10.50;99.90
17954;DHT22;9102;53.548;9.926;2022-09-16T04:47:43;10.50;99.90
17954;DHT22;9102;53.548;9.926;2022-09-16T04:50:10;10.50;99.90
17954;DHT22;9102;53.548;9.926;2022-09-16T04:52:36;10.40;99.90
17954;DHT22;9102;53.548;9.926;2022-09-16T04:55:04;10.40;99.90
17954;DHT22;9102;53.548;9.926;2022-09-16T04:57:33;10.40;99.90
17954;DHT22;9102;53.548;9.926;2022-09-16T05:00:00;10.40;99.90
17954;DHT22;9102;53.548;9.926;2022-09-16T05:02:27;10.40;99.90
17954;DHT22;9102;53.548;9.926;2022-09-16T05:04:54;10.40;99.90
17954;DHT22;9102;53.548;9.926;2022-09-16T05:07:21;10.40;99.90
17954;DHT22;9102;53.548;9.926;2022-09-16T05:09:48;10.40;99.90
17954;DHT22;9102;53.548;9.926;2022-09-16T05:12:15;10.50;99.90
17954;DHT22;9102;53.548;9.926;2022-09-16T05:14:43;10.40;99.90
17954;DHT22;9102;53.548;9.926;2022-09-16T05:17:09;10.50;99.90
17954;DHT22;9102;53.548;9.926;2022-09-16T05:19:36;10.50;99.90
17954;DHT22;9102;53.548;9.926;2022-09-16T05:22:03;10.50;99.90
17954;DHT22;9102;53.548;9.926;2022-09-16T05:24:33;10.60;99.90
17954;DHT22;9102;53.548;9.926;2022-09-16T05:27:01;10.60;99.90
17954;DHT22;9102;53.548;9.926;2022-09-16T05:29:28;10.60;99.90
17954;DHT22;9102;53.548;9.926;2022-09-16T05:31:56;10.70;99.90
17954;DHT22;9102;53.548;9.926;2022-09-16T05:34:24;10.70;99.90
17954;DHT22;9102;53.548;9.926;2022-09-16T05:36:53;10.60;99.90
17954;DHT22;9102;53.548;9.926;2022-09-16T05:39:21;10.70;99.90
17954;DHT22;9102;53.548;9.926;2022-09-16T05:41:49;10.70;99.90
17954;DHT22;9102;53.548;9.926;2022-09-16T05:44:16;10.70;99.90
17954;DHT22;9102;53.548;9.926;2022-09-16T05:46:42;10.60;99.90
17954;DHT22;9102;53.548;9.926;2022-09-16T05:49:11;10.60;99.90
17954;DHT22;9102;53.548;9.926;2022-09-16T05:51:38;10.60;99.90
17954;DHT22;9102;53.548;9.926;2022-09-16T05:54:06;10.60;99.90
17954;DHT22;9102;53.548;9.926;2022-09-16T05:56:33;10.60;99.90
17954;DHT22;9102;53.548;9.926;2022-09-16T05:59:00;10.60;99.90
17954;DHT22;9102;53.548;9.926;2022-09-16T06:01:29;10.60;99.90
17954;DHT22;9102;53.548;9.926;2022-09-16T06:03:56;10.60;99.90
17954;DHT22;9102;53.548;9.926;2022-09-16T06:06:26;10.60;99.90
17954;DHT22;9102;53.548;9.926;2022-09-16T06:08:54;10.70;99.90
17954;DHT22;9102;53.548;9.926;2022-09-16T06:11:22;10.70;99.90
17954;DHT22;9102;53.548;9.926;2022-09-16T06:13:51;10.90;99.90
17954;DHT22;9102;53.548;9.926;2022-09-16T06:16:20;10.80;99.90
17954;DHT22;9102;53.548;9.926;2022-09-16T06:18:48;10.80;99.90
17954;DHT22;9102;53.548;9.926;2022-09-16T06:21:14;10.80;99.90
17954;DHT22;9102;53.548;9.926;2022-09-16T06:23:43;10.80;99.90
17954;DHT22;9102;53.548;9.926;2022-09-16T06:26:12;10.80;99.90
17954;DHT22;9102;53.548;9.926;2022-09-16T06:28:40;10.80;99.90
17954;DHT22;9102;53.548;9.926;2022-09-16T06:31:10;10.90;99.90
17954;DHT22;9102;53.548;9.926;2022-09-16T06:33:38;10.90;99.90
17954;DHT22;9102;53.548;9.926;2022-09-16T06:36:06;11.00;99.90
17954;DHT22;9102;53.548;9.926;2022-09-16T06:38:34;11.10;99.90
17954;DHT22;9102;53.548;9.926;2022-09-16T06:41:04;11.10;99.90
17954;DHT22;9102;53.548;9.926;2022-09-16T06:43:32;11.10;99.90
17954;DHT22;9102;53.548;9.926;2022-09-16T06:46:00;11.00;99.90
17954;DHT22;9102;53.548;9.926;2022-09-16T06:48:27;11.10;99.90
17954;DHT22;9102;53.548;9.926;2022-09-16T06:50:58;11.20;99.90
17954;DHT22;9102;53.548;9.926;2022-09-16T06:53:25;11.20;99.90
17954;DHT22;9102;53.548;9.926;2022-09-16T06:55:52;11.30;99.90
17954;DHT22;9102;53.548;9.926;2022-09-16T06:58:20;11.30;99.90
17954;DHT22;9102;53.548;9.926;2022-09-16T07:00:47;11.30;99.90
17954;DHT22;9102;53.548;9.926;2022-09-16T07:03:15;11.30;99.90
17954;DHT22;9102;53.548;9.926;2022-09-16T07:05:42;11.30;99.90
17954;DHT22;9102;53.548;9.926;2022-09-16T07:08:09;11.40;99.90
17954;DHT22;9102;53.548;9.926;2022-09-16T07:10:36;11.40;99.90
17954;DHT22;9102;53.548;9.926;2022-09-16T07:13:02;11.30;99.90
17954;DHT22;9102;53.548;9.926;2022-09-16T07:15:32;11.40;99.90
17954;DHT22;9102;53.548;9.926;2022-09-16T07:17:59;11.50;99.90
17954;DHT22;9102;53.548;9.926;2022-09-16T07:20:26;11.50;99.90
17954;DHT22;9102;53.548;9.926;2022-09-16T07:22:53;11.50;99.90
17954;DHT22;9102;53.548;9.926;2022-09-16T07:25:19;11.60;99.90
17954;DHT22;9102;53.548;9.926;2022-09-16T07:27:46;11.60;99.90
17954;DHT22;9102;53.548;9.926;2022-09-16T07:30:13;11.60;99.90
17954;DHT22;9102;53.548;9.926;2022-09-16T07:32:41;11.70;99.90
17954;DHT22;9102;53.548;9.926;2022-09-16T07:35:08;11.70;99.90
17954;DHT22;9102;53.548;9.926;2022-09-16T07:37:35;11.90;99.90
17954;DHT22;9102;53.548;9.926;2022-09-16T07:40:03;12.00;99.90
17954;DHT22;9102;53.548;9.926;2022-09-16T07:42:31;12.10;99.90
17954;DHT22;9102;53.548;9.926;2022-09-16T07:44:57;12.20;99.90
17954;DHT22;9102;53.548;9.926;2022-09-16T07:47:24;12.20;99.90
17954;DHT22;9102;53.548;9.926;2022-09-16T07:49:52;12.40;99.90
17954;DHT22;9102;53.548;9.926;2022-09-16T07:52:21;12.40;99.90
17954;DHT22;9102;53.548;9.926;2022-09-16T07:54:50;12.50;99.90
17954;DHT22;9102;53.548;9.926;2022-09-16T07:57:17;12.70;99.90
17954;DHT22;9102;53.548;9.926;2022-09-16T07:59:44;12.70;99.90
17954;DHT22;9102;53.548;9.926;2022-09-16T08:02:10;12.90;99.90
17954;DHT22;9102;53.548;9.926;2022-09-16T08:04:37;13.00;99.90
17954;DHT22;9102;53.548;9.926;2022-09-16T08:07:06;13.20;99.90
17954;DHT22;9102;53.548;9.926;2022-09-16T08:09:33;13.40;99.90
17954;DHT22;9102;53.548;9.926;2022-09-16T08:12:02;13.50;99.90
17954;DHT22;9102;53.548;9.926;2022-09-16T08:14:29;13.40;99.90
17954;DHT22;9102;53.548;9.926;2022-09-16T08:16:57;13.20;99.90
17954;DHT22;9102;53.548;9.926;2022-09-16T08:19:25;13.10;99.90
17954;DHT22;9102;53.548;9.926;2022-09-16T08:21:52;12.90;99.90
17954;DHT22;9102;53.548;9.926;2022-09-16T08:24:20;12.90;99.90
17954;DHT22;9102;53.548;9.926;2022-09-16T08:26:47;12.90;99.90
17954;DHT22;9102;53.548;9.926;2022-09-16T08:29:14;13.10;99.90
17954;DHT22;9102;53.548;9.926;2022-09-16T08:31:41;13.20;99.90
17954;DHT22;9102;53.548;9.926;2022-09-16T08:34:08;13.30;99.90
17954;DHT22;9102;53.548;9.926;2022-09-16T08:36:34;13.40;99.90
17954;DHT22;9102;53.548;9.926;2022-09-16T08:39:01;13.50;99.90
17954;DHT22;9102;53.548;9.926;2022-09-16T08:41:39;13.50;99.90
17954;DHT22;9102;53.548;9.926;2022-09-16T08:47:38;14.10;99.90
17954;DHT22;9102;53.548;9.926;2022-09-16T08:50:12;14.10;99.90
17954;DHT22;9102;53.548;9.926;2022-09-16T08:52:41;14.10;99.90
17954;DHT22;9102;53.548;9.926;2022-09-16T08:55:13;14.30;99.90
17954;DHT22;9102;53.548;9.926;2022-09-16T08:57:51;14.40;99.90
17954;DHT22;9102;53.548;9.926;2022-09-16T09:00:20;14.60;99.90
17954;DHT22;9102;53.548;9.926;2022-09-16T09:02:50;14.60;99.90
17954;DHT22;9102;53.548;9.926;2022-09-16T09:05:26;14.50;99.90
17954;DHT22;9102;53.548;9.926;2022-09-16T09:08:07;14.50;99.90
17954;DHT22;9102;53.548;9.926;2022-09-16T09:10:48;14.50;99.90
17954;DHT22;9102;53.548;9.926;2022-09-16T09:13:37;14.60;99.90
17954;DHT22;9102;53.548;9.926;2022-09-16T09:16:11;14.60;99.90
17954;DHT22;9102;53.548;9.926;2022-09-16T09:18:52;14.60;99.90
17954;DHT22;9102;53.548;9.926;2022-09-16T09:21:28;14.50;99.90
17954;DHT22;9102;53.548;9.926;2022-09-16T09:24:21;14.30;99.90
17954;DHT22;9102;53.548;9.926;2022-09-16T09:26:56;14.30;99.90
17954;DHT22;9102;53.548;9.926;2022-09-16T09:32:20;14.00;99.90
17954;DHT22;9102;53.548;9.926;2022-09-16T09:35:09;13.90;99.90
17954;DHT22;9102;53.548;9.926;2022-09-16T09:37:57;13.50;99.90
17954;DHT22;9102;53.548;9.926;2022-09-16T09:40:33;12.90;99.90
17954;DHT22;9102;53.548;9.926;2022-09-16T09:43:05;12.60;99.90
17954;DHT22;9102;53.548;9.926;2022-09-16T09:45:39;12.30;99.90
17954;DHT22;9102;53.548;9.926;2022-09-16T09:48:13;12.30;99.90
17954;DHT22;9102;53.548;9.926;2022-09-16T09:50:43;12.40;99.90
17954;DHT22;9102;53.548;9.926;2022-09-16T09:53:13;12.30;99.90
17954;DHT22;9102;53.548;9.926;2022-09-16T09:55:43;12.40;99.90
17954;DHT22;9102;53.548;9.926;2022-09-16T09:58:16;12.50;99.90
17954;DHT22;9102;53.548;9.926;2022-09-16T10:00:47;12.60;99.90
17954;DHT22;9102;53.548;9.926;2022-09-16T10:03:16;12.70;99.90
17954;DHT22;9102;53.548;9.926;2022-09-16T10:05:45;12.90;99.90
17954;DHT22;9102;53.548;9.926;2022-09-16T10:08:17;13.10;99.90
17954;DHT22;9102;53.548;9.926;2022-09-16T10:10:50;13.30;99.90
17954;DHT22;9102;53.548;9.926;2022-09-16T10:13:18;13.70;99.90
17954;DHT22;9102;53.548;9.926;2022-09-16T10:15:47;14.00;99.90
17954;DHT22;9102;53.548;9.926;2022-09-16T10:18:22;14.10;99.90
17954;DHT22;9102;53.548;9.926;2022-09-16T10:21:00;14.20;99.90
17954;DHT22;9102;53.548;9.926;2022-09-16T10:23:28;14.20;99.90
17954;DHT22;9102;53.548;9.926;2022-09-16T10:26:18;14.30;99.90
17954;DHT22;9102;53.548;9.926;2022-09-16T10:28:54;14.40;99.90
17954;DHT22;9102;53.548;9.926;2022-09-16T10:31:24;14.50;99.90
17954;DHT22;9102;53.548;9.926;2022-09-16T10:33:51;14.70;99.90
17954;DHT22;9102;53.548;9.926;2022-09-16T10:36:19;14.80;99.90
17954;DHT22;9102;53.548;9.926;2022-09-16T10:38:49;14.90;99.90
17954;DHT22;9102;53.548;9.926;2022-09-16T10:41:20;15.00;99.90
17954;DHT22;9102;53.548;9.926;2022-09-16T10:43:50;15.20;99.90
17954;DHT22;9102;53.548;9.926;2022-09-16T10:46:17;15.30;99.90
17954;DHT22;9102;53.548;9.926;2022-09-16T10:48:48;15.50;99.90
17954;DHT22;9102;53.548;9.926;2022-09-16T10:51:22;15.60;99.90
17954;DHT22;9102;53.548;9.926;2022-09-16T10:53:52;15.60;99.90
17954;DHT22;9102;53.548;9.926;2022-09-16T10:56:21;15.70;99.90
17954;DHT22;9102;53.548;9.926;2022-09-16T10:58:48;15.80;99.90
17954;DHT22;9102;53.548;9.926;2022-09-16T11:01:31;15.90;99.90
17954;DHT22;9102;53.548;9.926;2022-09-16T11:07:06;16.20;99.90
17954;DHT22;9102;53.548;9.926;2022-09-16T11:09:41;16.30;99.90
17954;DHT22;9102;53.548;9.926;2022-09-16T11:12:36;16.40;99.90
17954;DHT22;9102;53.548;9.926;2022-09-16T11:15:13;16.40;99.90
17954;DHT22;9102;53.548;9.926;2022-09-16T11:17:53;15.90;99.90
17954;DHT22;9102;53.548;9.926;2022-09-16T11:20:46;15.50;99.90
17954;DHT22;9102;53.548;9.926;2022-09-16T11:23:26;14.90;99.90
17954;DHT22;9102;53.548;9.926;2022-09-16T11:26:01;14.40;99.90
17954;DHT22;9102;53.548;9.926;2022-09-16T11:28:49;14.00;99.90
17954;DHT22;9102;53.548;9.926;2022-09-16T11:31:27;13.90;99.90
17954;DHT22;9102;53.548;9.926;2022-09-16T11:34:00;14.00;99.90
17954;DHT22;9102;53.548;9.926;2022-09-16T11:36:37;14.10;99.90
17954;DHT22;9102;53.548;9.926;2022-09-16T11:39:19;14.30;99.90
17954;DHT22;9102;53.548;9.926;2022-09-16T11:41:56;14.40;99.90
17954;DHT22;9102;53.548;9.926;2022-09-16T11:44:32;14.70;99.90
17954;DHT22;9102;53.548;9.926;2022-09-16T11:50:04;15.00;99.90
17954;DHT22;9102;53.548;9.926;2022-09-16T11:52:47;15.20;99.90
17954;DHT22;9102;53.548;9.926;2022-09-16T11:55:31;15.40;99.90
17954;DHT22;9102;53.548;9.926;2022-09-16T11:58:04;15.50;99.90
17954;DHT22;9102;53.548;9.926;2022-09-16T12:00:37;15.70;99.90
17954;DHT22;9102;53.548;9.926;2022-09-16T12:03:10;15.70;99.90
17954;DHT22;9102;53.548;9.926;2022-09-16T12:05:40;16.00;99.90
17954;DHT22;9102;53.548;9.926;2022-09-16T12:08:13;16.00;99.90
17954;DHT22;9102;53.548;9.926;2022-09-16T12:10:50;16.00;99.90
17954;DHT22;9102;53.548;9.926;2022-09-16T12:13:21;16.00;99.90
17954;DHT22;9102;53.548;9.926;2022-09-16T12:15:52;16.30;99.90
17954;DHT22;9102;53.548;9.926;2022-09-16T12:18:23;16.50;99.90
17954;DHT22;9102;53.548;9.926;2022-09-16T12:20:56;16.60;99.90
17954;DHT22;9102;53.548;9.926;2022-09-16T12:23:27;16.50;99.90
17954;DHT22;9102;53.548;9.926;2022-09-16T12:26:02;15.90;99.90
17954;DHT22;9102;53.548;9.926;2022-09-16T12:28:34;15.50;99.90
17954;DHT22;9102;53.548;9.926;2022-09-16T12:31:11;15.10;99.90
17954;DHT22;9102;53.548;9.926;2022-09-16T12:33:43;15.00;99.90
17954;DHT22;9102;53.548;9.926;2022-09-16T12:36:15;15.00;99.90
17954;DHT22;9102;53.548;9.926;2022-09-16T12:38:45;14.90;99.90
17954;DHT22;9102;53.548;9.926;2022-09-16T12:41:25;14.90;99.90
17954;DHT22;9102;53.548;9.926;2022-09-16T12:47:05;14.80;99.90
17954;DHT22;9102;53.548;9.926;2022-09-16T12:55:44;14.90;99.90
17954;DHT22;9102;53.548;9.926;2022-09-16T12:58:28;14.60;99.90
17954;DHT22;9102;53.548;9.926;2022-09-16T13:01:04;14.10;99.90
17954;DHT22;9102;53.548;9.926;2022-09-16T13:03:38;13.70;99.90
17954;DHT22;9102;53.548;9.926;2022-09-16T13:06:17;13.50;99.90
17954;DHT22;9102;53.548;9.926;2022-09-16T13:08:45;13.40;99.90
17954;DHT22;9102;53.548;9.926;2022-09-16T13:11:18;13.60;99.90
17954;DHT22;9102;53.548;9.926;2022-09-16T13:13:48;13.70;99.90
17954;DHT22;9102;53.548;9.926;2022-09-16T13:16:27;13.90;99.90
17954;DHT22;9102;53.548;9.926;2022-09-16T13:19:21;14.00;99.90
17954;DHT22;9102;53.548;9.926;2022-09-16T13:21:54;14.00;99.90
17954;DHT22;9102;53.548;9.926;2022-09-16T13:24:26;13.40;99.90
17954;DHT22;9102;53.548;9.926;2022-09-16T13:26:57;13.10;99.90
17954;DHT22;9102;53.548;9.926;2022-09-16T13:29:30;12.80;99.90
17954;DHT22;9102;53.548;9.926;2022-09-16T13:31:56;12.70;99.90
17954;DHT22;9102;53.548;9.926;2022-09-16T13:34:23;12.70;99.90
17954;DHT22;9102;53.548;9.926;2022-09-16T13:36:51;12.60;99.90
17954;DHT22;9102;53.548;9.926;2022-09-16T13:39:27;12.50;99.90
17954;DHT22;9102;53.548;9.926;2022-09-16T13:41:54;12.50;99.90
17954;DHT22;9102;53.548;9.926;2022-09-16T13:44:29;12.40;99.90
17954;DHT22;9102;53.548;9.926;2022-09-16T13:47:28;12.30;99.90
17954;DHT22;9102;53.548;9.926;2022-09-16T13:49:59;12.20;99.90
17954;DHT22;9102;53.548;9.926;2022-09-16T13:52:28;12.20;99.90
17954;DHT22;9102;53.548;9.926;2022-09-16T13:54:58;12.10;99.90
17954;DHT22;9102;53.548;9.926;2022-09-16T13:57:37;12.10;99.90
17954;DHT22;9102;53.548;9.926;2022-09-16T14:00:21;12.00;99.90
17954;DHT22;9102;53.548;9.926;2022-09-16T14:03:10;12.00;99.90
17954;DHT22;9102;53.548;9.926;2022-09-16T14:06:14;12.00;99.90
17954;DHT22;9102;53.548;9.926;2022-09-16T14:08:49;12.00;99.90
17954;DHT22;9102;53.548;9.926;2022-09-16T14:11:23;12.00;99.90
17954;DHT22;9102;53.548;9.926;2022-09-16T14:13:57;11.80;99.90
17954;DHT22;9102;53.548;9.926;2022-09-16T14:16:31;11.70;99.90
17954;DHT22;9102;53.548;9.926;2022-09-16T14:19:01;11.70;99.90
17954;DHT22;9102;53.548;9.926;2022-09-16T14:21:29;11.60;99.90
17954;DHT22;9102;53.548;9.926;2022-09-16T14:24:14;11.50;99.90
17954;DHT22;9102;53.548;9.926;2022-09-16T14:26:49;11.50;99.90
17954;DHT22;9102;53.548;9.926;2022-09-16T14:29:16;11.40;99.90
17954;DHT22;9102;53.548;9.926;2022-09-16T14:31:45;11.40;99.90
17954;DHT22;9102;53.548;9.926;2022-09-16T14:34:14;11.40;99.90
17954;DHT22;9102;53.548;9.926;2022-09-16T14:36:42;11.40;99.90
17954;DHT22;9102;53.548;9.926;2022-09-16T14:39:13;11.40;99.90
17954;DHT22;9102;53.548;9.926;2022-09-16T14:41:45;11.40;99.90
17954;DHT22;9102;53.548;9.926;2022-09-16T14:44:20;11.40;99.90
17954;DHT22;9102;53.548;9.926;2022-09-16T14:46:53;11.40;99.90
17954;DHT22;9102;53.548;9.926;2022-09-16T14:49:20;11.40;99.90
17954;DHT22;9102;53.548;9.926;2022-09-16T14:51:49;11.30;99.90
17954;DHT22;9102;53.548;9.926;2022-09-16T14:54:19;11.40;99.90
17954;DHT22;9102;53.548;9.926;2022-09-16T14:56:56;11.40;99.90
17954;DHT22;9102;53.548;9.926;2022-09-16T14:59:26;11.30;99.90
17954;DHT22;9102;53.548;9.926;2022-09-16T15:01:58;11.40;99.90
17954;DHT22;9102;53.548;9.926;2022-09-16T15:04:28;11.40;99.90
17954;DHT22;9102;53.548;9.926;2022-09-16T15:06:59;11.40;99.90
17954;DHT22;9102;53.548;9.926;2022-09-16T15:09:37;11.40;99.90
17954;DHT22;9102;53.548;9.926;2022-09-16T15:12:19;11.40;99.90
17954;DHT22;9102;53.548;9.926;2022-09-16T15:14:47;11.50;99.90
17954;DHT22;9102;53.548;9.926;2022-09-16T15:17:19;11.50;99.90
17954;DHT22;9102;53.548;9.926;2022-09-16T15:19:50;11.50;99.90
17954;DHT22;9102;53.548;9.926;2022-09-16T15:22:19;11.50;99.90
17954;DHT22;9102;53.548;9.926;2022-09-16T15:24:48;11.50;99.90
17954;DHT22;9102;53.548;9.926;2022-09-16T15:27:20;11.60;99.90
17954;DHT22;9102;53.548;9.926;2022-09-16T15:29:51;11.70;99.90
17954;DHT22;9102;53.548;9.926;2022-09-16T15:32:21;11.60;99.90
17954;DHT22;9102;53.548;9.926;2022-09-16T15:35:12;11.70;99.90
17954;DHT22;9102;53.548;9.926;2022-09-16T15:37:41;11.70;99.90
17954;DHT22;9102;53.548;9.926;2022-09-16T15:40:16;11.70;99.90
17954;DHT22;9102;53.548;9.926;2022-09-16T15:42:44;11.70;99.90
17954;DHT22;9102;53.548;9.926;2022-09-16T15:45:15;11.80;99.90
17954;DHT22;9102;53.548;9.926;2022-09-16T15:47:58;11.90;99.90
17954;DHT22;9102;53.548;9.926;2022-09-16T15:50:27;12.00;99.90
17954;DHT22;9102;53.548;9.926;2022-09-16T15:52:58;12.00;99.90
17954;DHT22;9102;53.548;9.926;2022-09-16T15:55:33;12.10;99.90
17954;DHT22;9102;53.548;9.926;2022-09-16T15:58:05;12.10;99.90
17954;DHT22;9102;53.548;9.926;2022-09-16T16:00:55;12.20;99.90
17954;DHT22;9102;53.548;9.926;2022-09-16T16:03:26;12.20;99.90
17954;DHT22;9102;53.548;9.926;2022-09-16T16:05:54;12.30;99.90
17954;DHT22;9102;53.548;9.926;2022-09-16T16:08:43;12.30;99.90
17954;DHT22;9102;53.548;9.926;2022-09-16T16:11:12;12.30;99.90
17954;DHT22;9102;53.548;9.926;2022-09-16T16:13:39;12.40;99.90
17954;DHT22;9102;53.548;9.926;2022-09-16T16:16:07;12.30;99.90
17954;DHT22;9102;53.548;9.926;2022-09-16T16:18:36;12.30;99.90
17954;DHT22;9102;53.548;9.926;2022-09-16T16:21:04;12.30;99.90
17954;DHT22;9102;53.548;9.926;2022-09-16T16:23:33;12.30;99.90
17954;DHT22;9102;53.548;9.926;2022-09-16T16:26:00;12.30;99.90
17954;DHT22;9102;53.548;9.926;2022-09-16T16:28:29;12.30;99.90
17954;DHT22;9102;53.548;9.926;2022-09-16T16:31:13;12.30;99.90
17954;DHT22;9102;53.548;9.926;2022-09-16T16:33:51;12.30;99.90
17954;DHT22;9102;53.548;9.926;2022-09-16T16:36:19;12.30;99.90
17954;DHT22;9102;53.548;9.926;2022-09-16T16:38:49;12.40;99.90
17954;DHT22;9102;53.548;9.926;2022-09-16T16:41:18;12.40;99.90
17954;DHT22;9102;53.548;9.926;2022-09-16T16:43:49;12.50;99.90